createdAt,value
2017-08-17T00:01:26.043Z,4.95
2017-08-17T00:03:54.370Z,4.78
2017-08-17T00:06:21.936Z,4.60
2017-08-17T00:08:49.496Z,5.05
2017-08-17T00:11:17.666Z,4.85
2017-08-17T00:13:46.003Z,6.82
2017-08-17T00:16:14.939Z,6.22
2017-08-17T00:18:42.492Z,5.80
2017-08-17T00:21:10.145Z,5.95
2017-08-17T00:23:37.777Z,5.32
2017-08-17T00:26:05.338Z,4.12
2017-08-17T00:28:35.735Z,4.50
2017-08-17T00:31:03.322Z,4.63
2017-08-17T00:33:30.876Z,5.40
2017-08-17T00:35:58.451Z,5.22
2017-08-17T00:38:25.995Z,5.07
2017-08-17T00:40:54.306Z,4.50
2017-08-17T00:43:21.899Z,6.37
2017-08-17T00:45:49.434Z,4.70
2017-08-17T00:48:17.004Z,5.15
2017-08-17T00:50:44.544Z,4.82
2017-08-17T00:53:12.113Z,4.60
2017-08-17T00:55:39.665Z,4.90
2017-08-17T00:58:08.001Z,4.90
2017-08-17T01:00:35.537Z,5.13
2017-08-17T01:03:03.106Z,4.35
2017-08-17T01:05:30.656Z,5.55
2017-08-17T01:07:58.235Z,5.20
2017-08-17T01:10:25.773Z,5.13
2017-08-17T01:12:53.363Z,12.37
2017-08-17T01:15:20.900Z,5.18
2017-08-17T01:17:48.474Z,4.70
2017-08-17T01:20:16.014Z,7.37
2017-08-17T01:22:43.596Z,4.57
2017-08-17T01:25:11.917Z,4.87
2017-08-17T01:27:39.474Z,5.00
2017-08-17T01:30:07.038Z,5.12
2017-08-17T01:32:34.610Z,5.60
2017-08-17T01:35:02.176Z,5.77
2017-08-17T01:37:29.738Z,4.82
2017-08-17T01:39:57.322Z,6.55
2017-08-17T01:42:24.875Z,4.37
2017-08-17T01:44:52.441Z,4.10
2017-08-17T01:47:26.540Z,4.78
2017-08-17T01:49:54.111Z,5.05
2017-08-17T01:52:21.668Z,4.53
2017-08-17T01:54:49.237Z,4.62
2017-08-17T01:57:16.775Z,5.45
2017-08-17T01:59:44.351Z,5.20
2017-08-17T02:02:11.892Z,5.07
2017-08-17T02:04:40.227Z,5.00
2017-08-17T02:07:07.772Z,4.78
2017-08-17T02:09:35.339Z,5.28
2017-08-17T02:12:02.905Z,4.43
2017-08-17T02:14:30.485Z,6.05
2017-08-17T02:16:58.050Z,5.35
2017-08-17T02:19:25.600Z,5.30
2017-08-17T02:21:53.181Z,5.50
2017-08-17T02:24:20.718Z,5.10
2017-08-17T02:26:48.290Z,6.00
2017-08-17T02:29:15.851Z,5.22
2017-08-17T02:31:43.413Z,4.70
2017-08-17T02:34:10.966Z,5.22
2017-08-17T02:36:39.303Z,4.62
2017-08-17T02:39:06.843Z,4.60
2017-08-17T02:41:34.389Z,4.78
2017-08-17T02:44:01.992Z,5.18
2017-08-17T02:46:29.539Z,4.80
2017-08-17T02:48:57.096Z,4.78
2017-08-17T02:51:24.622Z,5.18
2017-08-17T02:53:52.969Z,5.30
2017-08-17T02:56:20.533Z,5.22
2017-08-17T02:58:48.097Z,6.35
2017-08-17T03:01:15.648Z,5.37
2017-08-17T03:03:43.218Z,5.05
2017-08-17T03:06:10.766Z,5.53
2017-08-17T03:08:38.703Z,5.10
2017-08-17T03:11:07.010Z,4.70
2017-08-17T03:13:34.585Z,5.85
2017-08-17T03:16:02.153Z,5.87
2017-08-17T03:18:29.729Z,4.70
2017-08-17T03:20:57.305Z,5.35
2017-08-17T03:23:24.842Z,6.30
2017-08-17T03:25:52.414Z,6.35
2017-08-17T03:28:19.972Z,5.40
2017-08-17T03:30:47.543Z,6.55
2017-08-17T03:33:15.090Z,5.90
2017-08-17T03:35:42.699Z,7.00
2017-08-17T03:38:11.008Z,5.93
2017-08-17T03:40:38.578Z,6.72
2017-08-17T03:43:06.924Z,6.70
2017-08-17T03:45:34.482Z,6.12
2017-08-17T03:48:02.044Z,7.53
2017-08-17T03:50:30.471Z,6.60
2017-08-17T03:52:58.031Z,6.35
2017-08-17T03:55:25.553Z,7.95
2017-08-17T03:57:53.111Z,7.40
2017-08-17T04:00:20.653Z,6.15
2017-08-17T04:02:48.295Z,7.97
2017-08-17T04:05:16.622Z,8.00
2017-08-17T04:07:44.191Z,6.40
2017-08-17T04:10:11.748Z,7.18
2017-08-17T04:12:39.336Z,6.20
2017-08-17T04:15:06.891Z,6.03
2017-08-17T04:17:34.504Z,5.72
2017-08-17T04:20:02.069Z,6.03
2017-08-17T04:22:29.659Z,5.82
2017-08-17T04:24:57.216Z,6.62
2017-08-17T04:27:25.537Z,5.60
2017-08-17T04:29:53.117Z,6.30
2017-08-17T04:32:20.675Z,6.72
2017-08-17T04:34:48.252Z,6.50
2017-08-17T04:37:15.806Z,6.70
2017-08-17T04:39:43.370Z,6.50
2017-08-17T04:42:10.926Z,5.85
2017-08-17T04:44:38.495Z,6.40
2017-08-17T04:47:06.069Z,6.78
2017-08-17T04:49:33.641Z,8.20
2017-08-17T04:52:01.375Z,5.85
2017-08-17T04:54:29.002Z,6.63
2017-08-17T04:57:28.128Z,7.12
2017-08-17T04:59:55.699Z,6.53
2017-08-17T05:02:23.271Z,5.47
2017-08-17T05:04:50.866Z,6.63
2017-08-17T05:07:18.514Z,6.63
2017-08-17T05:09:46.158Z,6.32
2017-08-17T05:12:13.744Z,6.07
2017-08-17T05:14:41.307Z,6.70
2017-08-17T05:17:08.897Z,7.18
2017-08-17T05:19:36.435Z,7.03
2017-08-17T05:22:03.995Z,8.87
2017-08-17T05:24:31.561Z,6.30
2017-08-17T05:26:59.119Z,7.23
2017-08-17T05:29:26.673Z,6.07
2017-08-17T05:31:54.237Z,6.27
2017-08-17T05:34:21.784Z,5.70
2017-08-17T05:36:50.120Z,6.27
2017-08-17T05:39:17.663Z,5.77
2017-08-17T05:41:45.220Z,5.70
2017-08-17T05:44:12.777Z,5.40
2017-08-17T05:46:41.075Z,6.73
2017-08-17T05:49:08.634Z,5.77
2017-08-17T05:51:37.116Z,6.30
2017-08-17T05:54:05.074Z,8.60
2017-08-17T05:56:33.379Z,6.13
2017-08-17T05:59:00.949Z,6.90
2017-08-17T06:01:29.441Z,6.43
2017-08-17T06:03:57.017Z,6.40
2017-08-17T06:06:24.577Z,7.53
2017-08-17T06:08:52.105Z,6.10
2017-08-17T06:11:19.713Z,6.80
2017-08-17T06:13:47.255Z,6.53
2017-08-17T06:16:14.876Z,8.00
2017-08-17T06:18:42.420Z,8.77
2017-08-17T06:21:10.003Z,5.67
2017-08-17T06:23:38.329Z,6.37
2017-08-17T06:26:05.913Z,7.30
2017-08-17T06:28:33.450Z,6.60
2017-08-17T06:31:01.017Z,4.80
2017-08-17T06:33:28.584Z,6.80
2017-08-17T06:35:56.126Z,6.53
2017-08-17T06:38:24.476Z,5.30
2017-08-17T06:40:52.031Z,5.33
2017-08-17T06:43:19.588Z,5.10
2017-08-17T06:45:47.125Z,5.10
2017-08-17T06:48:14.687Z,5.10
2017-08-17T06:50:42.241Z,5.10
2017-08-17T06:53:09.854Z,4.27
2017-08-17T06:55:37.415Z,4.47
2017-08-17T06:58:04.981Z,4.90
2017-08-17T07:00:32.514Z,5.30
2017-08-17T07:03:00.052Z,5.70
2017-08-17T07:05:27.625Z,5.57
2017-08-17T07:07:55.938Z,5.43
2017-08-17T07:10:23.500Z,5.33
2017-08-17T07:12:51.067Z,6.30
2017-08-17T07:15:18.622Z,5.10
2017-08-17T07:17:46.210Z,6.73
2017-08-17T07:20:13.764Z,8.77
2017-08-17T07:22:41.319Z,5.90
2017-08-17T07:25:08.888Z,6.40
2017-08-17T07:27:36.458Z,5.33
2017-08-17T07:30:04.068Z,6.77
2017-08-17T07:32:32.381Z,6.57
2017-08-17T07:35:02.629Z,7.07
2017-08-17T07:37:30.176Z,5.80
2017-08-17T07:39:57.754Z,6.47
2017-08-17T07:42:25.324Z,6.20
2017-08-17T07:44:52.870Z,5.97
2017-08-17T07:47:20.423Z,6.30
2017-08-17T07:49:48.731Z,6.40
2017-08-17T07:52:16.292Z,6.07
2017-08-17T07:54:44.044Z,5.83
2017-08-17T07:57:12.424Z,6.10
2017-08-17T07:59:40.758Z,6.37
2017-08-17T08:02:08.290Z,6.87
2017-08-17T08:04:36.595Z,5.90
2017-08-17T08:07:05.185Z,6.90
2017-08-17T08:09:32.721Z,5.83
2017-08-17T08:12:00.286Z,6.00
2017-08-17T08:14:27.816Z,6.00
2017-08-17T08:16:55.367Z,5.17
2017-08-17T08:19:22.924Z,6.13
2017-08-17T08:21:50.490Z,6.87
2017-08-17T08:24:18.026Z,5.33
2017-08-17T08:26:45.558Z,5.93
2017-08-17T08:29:13.872Z,6.33
2017-08-17T08:31:41.402Z,6.50
2017-08-17T08:34:08.964Z,6.93
2017-08-17T08:36:37.288Z,5.67
2017-08-17T08:39:04.816Z,6.27
2017-08-17T08:41:33.161Z,6.43
2017-08-17T08:44:00.739Z,5.10
2017-08-17T08:46:28.270Z,5.87
2017-08-17T08:48:55.838Z,6.30
2017-08-17T08:51:23.368Z,6.20
2017-08-17T08:53:51.711Z,6.63
2017-08-17T08:56:19.258Z,6.43
2017-08-17T08:58:46.806Z,6.10
2017-08-17T09:01:14.363Z,5.90
2017-08-17T09:03:41.901Z,6.70
2017-08-17T09:06:09.457Z,6.40
2017-08-17T09:08:37.776Z,5.40
2017-08-17T09:11:05.348Z,10.10
2017-08-17T09:13:32.892Z,6.23
2017-08-17T09:16:00.435Z,5.63
2017-08-17T09:18:28.016Z,5.80
2017-08-17T09:20:56.337Z,5.90
2017-08-17T09:23:23.902Z,5.57
2017-08-17T09:25:51.460Z,5.20
2017-08-17T09:28:18.992Z,5.43
2017-08-17T09:30:47.292Z,5.70
2017-08-17T09:33:14.845Z,5.57
2017-08-17T09:35:42.437Z,5.50
2017-08-17T09:38:09.976Z,4.70
2017-08-17T09:40:37.687Z,6.10
2017-08-17T09:43:05.219Z,5.63
2017-08-17T09:45:32.760Z,4.40
2017-08-17T09:48:01.073Z,5.60
2017-08-17T09:50:28.611Z,5.57
2017-08-17T09:52:56.935Z,5.13
2017-08-17T09:55:24.468Z,5.37
2017-08-17T09:57:52.018Z,5.17
2017-08-17T10:00:20.444Z,4.77
2017-08-17T10:02:48.007Z,4.67
2017-08-17T10:05:15.570Z,4.63
2017-08-17T10:07:43.133Z,4.70
2017-08-17T10:10:10.714Z,5.60
2017-08-17T10:12:38.259Z,5.80
2017-08-17T10:15:05.806Z,7.93
2017-08-17T10:17:33.410Z,4.70
2017-08-17T10:20:00.954Z,5.27
2017-08-17T10:22:28.534Z,4.43
2017-08-17T10:24:56.093Z,6.40
2017-08-17T10:27:23.651Z,4.90
2017-08-17T10:29:51.220Z,4.90
2017-08-17T10:32:18.766Z,4.83
2017-08-17T10:34:46.380Z,5.80
2017-08-17T10:37:13.941Z,4.03
2017-08-17T10:39:41.514Z,4.23
2017-08-17T10:42:09.058Z,4.70
2017-08-17T10:44:36.597Z,4.50
2017-08-17T10:47:04.185Z,4.20
2017-08-17T10:49:31.780Z,4.20
2017-08-17T10:51:59.362Z,4.77
2017-08-17T10:54:27.706Z,4.10
2017-08-17T10:56:55.264Z,4.63
2017-08-17T10:59:22.900Z,3.90
2017-08-17T11:01:50.473Z,3.90
2017-08-17T11:04:18.069Z,3.93
2017-08-17T11:06:45.605Z,4.17
2017-08-17T11:09:13.208Z,4.53
2017-08-17T11:11:40.763Z,4.10
2017-08-17T11:14:08.358Z,4.57
2017-08-17T11:16:36.778Z,3.47
2017-08-17T11:19:04.329Z,4.00
2017-08-17T11:21:32.646Z,4.20
2017-08-17T11:24:00.270Z,4.40
2017-08-17T11:26:28.634Z,5.20
2017-08-17T11:28:56.202Z,4.80
2017-08-17T11:31:23.767Z,4.10
2017-08-17T11:33:51.337Z,3.87
2017-08-17T11:36:19.677Z,3.80
2017-08-17T11:38:47.206Z,4.20
2017-08-17T11:41:14.785Z,5.43
2017-08-17T11:43:42.344Z,4.20
2017-08-17T11:46:09.939Z,4.63
2017-08-17T11:48:36.974Z,4.37
2017-08-17T11:51:04.035Z,3.90
2017-08-17T11:53:31.581Z,4.30
2017-08-17T11:55:59.136Z,4.60
2017-08-17T11:58:27.282Z,4.13
2017-08-17T12:00:55.565Z,4.77
2017-08-17T12:03:23.935Z,4.27
2017-08-17T12:05:52.251Z,6.73
2017-08-17T12:08:19.813Z,4.17
2017-08-17T12:10:47.337Z,4.60
2017-08-17T12:13:14.894Z,4.33
2017-08-17T12:15:43.176Z,5.10
2017-08-17T12:18:10.717Z,4.40
2017-08-17T12:20:38.266Z,5.33
2017-08-17T12:23:05.770Z,6.83
2017-08-17T12:25:33.302Z,4.40
2017-08-17T12:28:01.587Z,4.33
2017-08-17T12:30:36.878Z,4.43
2017-08-17T12:33:04.417Z,4.27
2017-08-17T12:35:31.990Z,4.60
2017-08-17T12:37:59.520Z,4.87
2017-08-17T12:40:27.057Z,5.43
2017-08-17T12:42:58.177Z,5.93
2017-08-17T12:45:25.684Z,5.90
2017-08-17T12:47:53.233Z,6.00
2017-08-17T12:50:20.757Z,6.20
2017-08-17T12:52:48.286Z,5.77
2017-08-17T12:55:15.847Z,5.00
2017-08-17T12:57:43.682Z,5.87
2017-08-17T13:00:11.237Z,6.00
2017-08-17T13:02:38.760Z,5.13
2017-08-17T13:05:06.287Z,5.10
2017-08-17T13:07:33.838Z,5.53
2017-08-17T13:10:01.360Z,7.07
2017-08-17T13:12:28.906Z,7.30
2017-08-17T13:14:57.200Z,5.87
2017-08-17T13:17:24.742Z,6.50
2017-08-17T13:19:53.028Z,5.47
2017-08-17T13:22:21.351Z,5.33
2017-08-17T13:24:48.873Z,8.53
2017-08-17T13:27:16.430Z,6.80
2017-08-17T13:29:43.961Z,5.63
2017-08-17T13:32:14.581Z,6.33
2017-08-17T13:34:45.106Z,6.43
2017-08-17T13:37:12.620Z,5.43
2017-08-17T13:39:40.472Z,5.50
2017-08-17T13:42:08.756Z,5.53
2017-08-17T13:44:36.288Z,5.23
2017-08-17T13:47:03.824Z,5.83
2017-08-17T13:49:31.380Z,5.67
2017-08-17T13:54:52.137Z,5.73
2017-08-17T13:57:19.701Z,7.90
2017-08-17T13:59:47.302Z,5.60
2017-08-17T14:02:15.061Z,5.47
2017-08-17T14:04:43.398Z,4.53
2017-08-17T14:07:11.016Z,5.10
2017-08-17T14:09:39.593Z,5.40
2017-08-17T14:12:07.939Z,6.07
2017-08-17T14:14:36.025Z,5.70
2017-08-17T14:17:03.535Z,5.27
2017-08-17T14:19:31.837Z,7.30
2017-08-17T14:21:59.380Z,7.00
2017-08-17T14:24:26.924Z,6.97
2017-08-17T14:26:54.496Z,7.03
2017-08-17T14:29:22.027Z,5.47
2017-08-17T14:31:49.562Z,5.43
2017-08-17T14:34:17.105Z,5.40
2017-08-17T14:36:44.617Z,5.70
2017-08-17T14:39:12.976Z,5.60
2017-08-17T14:41:41.347Z,5.80
2017-08-17T14:44:08.861Z,5.70
2017-08-17T14:46:36.415Z,8.90
2017-08-17T14:49:03.975Z,6.43
2017-08-17T14:51:31.545Z,6.90
2017-08-17T14:53:59.090Z,5.90
2017-08-17T14:56:26.624Z,6.73
2017-08-17T14:58:54.943Z,6.20
2017-08-17T15:01:22.493Z,6.10
2017-08-17T15:03:50.609Z,6.13
2017-08-17T15:06:18.136Z,6.30
2017-08-17T15:08:46.128Z,5.90
2017-08-17T15:11:17.377Z,7.00
2017-08-17T15:13:44.938Z,5.83
2017-08-17T15:16:12.465Z,6.10
2017-08-17T15:18:40.018Z,5.57
2017-08-17T15:21:07.559Z,5.90
2017-08-17T15:23:35.094Z,6.83
2017-08-17T15:26:03.470Z,6.07
2017-08-17T15:28:31.002Z,6.57
2017-08-17T15:30:58.550Z,7.57
2017-08-17T15:33:26.075Z,6.77
2017-08-17T15:35:53.603Z,6.40
2017-08-17T15:38:21.153Z,6.20
2017-08-17T15:40:48.674Z,6.50
2017-08-17T15:43:16.223Z,6.10
2017-08-17T15:45:43.747Z,7.20
2017-08-17T15:48:12.871Z,6.47
2017-08-17T15:50:40.412Z,11.03
2017-08-17T15:53:08.729Z,6.10
2017-08-17T15:55:36.260Z,5.87
2017-08-17T15:58:03.824Z,7.00
2017-08-17T16:00:31.342Z,5.80
2017-08-17T16:02:58.907Z,6.37
2017-08-17T16:05:26.431Z,6.23
2017-08-17T16:07:56.935Z,6.90
2017-08-17T16:10:24.503Z,7.23
2017-08-17T16:12:52.055Z,14.03
2017-08-17T16:15:19.621Z,7.13
2017-08-17T16:17:47.155Z,7.77
2017-08-17T16:20:14.701Z,6.80
2017-08-17T16:22:43.021Z,6.90
2017-08-17T16:25:10.554Z,8.17
2017-08-17T16:27:38.427Z,7.37
2017-08-17T16:30:05.970Z,8.90
2017-08-17T16:32:34.275Z,10.57
2017-08-17T16:35:01.815Z,8.60
2017-08-17T16:37:29.341Z,7.30
2017-08-17T16:39:56.888Z,6.53
2017-08-17T16:42:24.418Z,8.23
2017-08-17T16:44:51.987Z,6.73
2017-08-17T16:47:19.512Z,6.83
2017-08-17T16:49:47.055Z,7.07
2017-08-17T16:52:15.349Z,7.47
2017-08-17T16:54:42.966Z,6.50
2017-08-17T16:57:10.692Z,9.60
2017-08-17T16:59:38.220Z,6.53
2017-08-17T17:05:00.238Z,6.40
2017-08-17T17:07:27.809Z,7.13
2017-08-17T17:09:55.354Z,7.80
2017-08-17T17:12:23.710Z,8.20
2017-08-17T17:14:51.271Z,6.17
2017-08-17T17:17:18.874Z,7.30
2017-08-17T17:19:47.261Z,7.43
2017-08-17T17:22:14.828Z,5.77
2017-08-17T17:24:43.183Z,6.83
2017-08-17T17:27:10.817Z,7.80
2017-08-17T17:29:38.524Z,14.03
2017-08-17T17:32:06.107Z,7.73
2017-08-17T17:34:34.447Z,12.07
2017-08-17T17:37:02.002Z,12.33
2017-08-17T17:39:29.577Z,8.40
2017-08-17T17:41:57.121Z,11.57
2017-08-17T17:44:24.692Z,17.80
2017-08-17T17:46:52.221Z,7.10
2017-08-17T17:49:19.754Z,6.23
2017-08-17T17:51:47.311Z,8.20
2017-08-17T17:54:14.895Z,6.70
2017-08-17T17:56:42.456Z,8.27
2017-08-17T17:59:10.002Z,7.87
2017-08-17T18:01:37.551Z,5.37
2017-08-17T18:04:05.089Z,7.13
2017-08-17T18:06:32.680Z,6.73
2017-08-17T18:09:00.279Z,7.10
2017-08-17T18:11:27.837Z,5.20
2017-08-17T18:13:55.371Z,8.33
2017-08-17T18:16:22.934Z,5.43
2017-08-17T18:18:50.455Z,8.40
2017-08-17T18:21:18.791Z,5.43
2017-08-17T18:23:46.339Z,6.67
2017-08-17T18:26:13.857Z,7.67
2017-08-17T18:28:42.411Z,9.30
2017-08-17T18:31:09.966Z,5.77
2017-08-17T18:33:41.131Z,5.60
2017-08-17T18:36:09.450Z,8.63
2017-08-17T18:38:38.516Z,5.33
2017-08-17T18:41:06.065Z,7.60
2017-08-17T18:43:35.220Z,7.00
2017-08-17T18:46:03.629Z,6.20
2017-08-17T18:48:31.183Z,7.20
2017-08-17T18:50:58.810Z,9.23
2017-08-17T18:53:26.431Z,9.20
2017-08-17T18:55:53.983Z,8.17
2017-08-17T18:58:21.546Z,5.90
2017-08-17T19:00:49.122Z,7.77
2017-08-17T19:03:26.664Z,7.37
2017-08-17T19:05:55.070Z,8.50
2017-08-17T19:08:22.638Z,6.73
2017-08-17T19:10:51.183Z,6.23
2017-08-17T19:13:18.753Z,6.97
2017-08-17T19:15:46.310Z,7.23
2017-08-17T19:18:14.641Z,9.60
2017-08-17T19:20:43.434Z,10.00
2017-08-17T19:23:21.786Z,7.87
2017-08-17T19:25:50.261Z,7.63
2017-08-17T19:28:18.012Z,6.20
2017-08-17T19:30:45.635Z,7.10
2017-08-17T19:33:13.222Z,6.47
2017-08-17T19:35:43.690Z,6.97
2017-08-17T19:38:11.746Z,7.40
2017-08-17T19:40:39.337Z,10.27
2017-08-17T19:43:07.634Z,8.27
2017-08-17T19:45:35.183Z,8.23
2017-08-17T19:48:02.767Z,7.47
2017-08-17T19:50:30.323Z,7.90
2017-08-17T19:52:58.039Z,8.30
2017-08-17T19:55:25.937Z,8.10
2017-08-17T19:57:55.048Z,7.73
2017-08-17T20:00:25.434Z,7.40
2017-08-17T20:02:54.981Z,7.93
2017-08-17T20:05:22.558Z,8.30
2017-08-17T20:07:50.174Z,8.73
2017-08-17T20:10:19.153Z,9.60
2017-08-17T20:12:46.710Z,8.83
2017-08-17T20:15:14.316Z,9.70
2017-08-17T20:17:44.753Z,11.50
2017-08-17T20:20:15.126Z,9.70
2017-08-17T20:22:46.557Z,10.13
2017-08-17T20:25:14.859Z,11.23
2017-08-17T20:27:42.510Z,8.40
2017-08-17T20:30:10.049Z,11.53
2017-08-17T20:32:42.136Z,9.07
2017-08-17T20:35:09.686Z,9.57
2017-08-17T20:37:37.327Z,11.50
2017-08-17T20:40:04.934Z,10.20
2017-08-17T20:42:33.058Z,10.50
2017-08-17T20:45:00.628Z,9.63
2017-08-17T20:47:29.099Z,13.03
2017-08-17T20:49:56.673Z,8.90
2017-08-17T20:52:24.287Z,9.57
2017-08-17T20:54:55.208Z,9.87
2017-08-17T20:57:23.558Z,9.90
2017-08-17T20:59:52.049Z,8.93
2017-08-17T21:02:20.832Z,9.23
2017-08-17T21:04:48.385Z,9.47
2017-08-17T21:07:15.920Z,12.17
2017-08-17T21:09:43.456Z,9.67
2017-08-17T21:12:11.842Z,9.00
2017-08-17T21:14:41.277Z,12.93
2017-08-17T21:17:08.901Z,8.63
2017-08-17T21:19:36.461Z,9.20
2017-08-17T21:22:04.017Z,9.03
2017-08-17T21:24:31.536Z,9.97
2017-08-17T21:26:59.148Z,9.33
2017-08-17T21:29:26.700Z,10.23
2017-08-17T21:31:54.964Z,11.47
2017-08-17T21:34:22.561Z,10.50
2017-08-17T21:36:50.097Z,10.77
2017-08-17T21:39:17.729Z,9.33
2017-08-17T21:41:46.878Z,8.97
2017-08-17T21:44:14.482Z,9.13
2017-08-17T21:46:43.009Z,10.20
2017-08-17T21:49:10.612Z,9.50
2017-08-17T21:51:38.158Z,10.70
2017-08-17T21:54:07.490Z,14.63
2017-08-17T21:56:35.063Z,9.47
2017-08-17T21:59:02.594Z,8.93
2017-08-17T22:01:30.603Z,9.90
2017-08-17T22:03:58.734Z,8.93
2017-08-17T22:06:26.288Z,9.00
2017-08-17T22:08:53.854Z,8.63
2017-08-17T22:11:21.467Z,10.53
2017-08-17T22:13:49.447Z,9.83
2017-08-17T22:16:17.029Z,8.60
2017-08-17T22:18:45.357Z,9.50
2017-08-17T22:21:12.905Z,12.73
2017-08-17T22:23:40.470Z,8.43
2017-08-17T22:26:08.028Z,11.00
2017-08-17T22:28:35.587Z,8.43
2017-08-17T22:31:06.070Z,10.57
2017-08-17T22:33:34.204Z,9.13
2017-08-17T22:36:01.788Z,9.43
2017-08-17T22:38:29.342Z,9.23
2017-08-17T22:40:57.020Z,8.77
2017-08-17T22:43:24.695Z,11.50
2017-08-17T22:45:52.306Z,8.53
2017-08-17T22:48:20.662Z,8.20
2017-08-17T22:50:49.147Z,10.10
2017-08-17T22:53:16.738Z,9.07
2017-08-17T22:55:45.460Z,8.53
2017-08-17T22:58:13.072Z,9.10
2017-08-17T23:00:42.462Z,8.23
2017-08-17T23:03:10.020Z,9.40
2017-08-17T23:05:37.702Z,8.97
2017-08-17T23:08:05.293Z,9.00
2017-08-17T23:10:32.878Z,9.40
2017-08-17T23:13:01.224Z,9.43
2017-08-17T23:15:29.962Z,9.90
2017-08-17T23:17:57.581Z,10.47
2017-08-17T23:20:25.407Z,10.27
2017-08-17T23:22:53.362Z,8.97
2017-08-17T23:25:20.997Z,9.30
2017-08-17T23:27:48.704Z,10.20
2017-08-17T23:32:50.741Z,11.07
2017-08-17T23:35:18.368Z,9.37
2017-08-17T23:37:45.931Z,9.07
2017-08-17T23:40:13.526Z,10.63
2017-08-17T23:42:41.133Z,9.83
2017-08-17T23:45:08.701Z,10.30
2017-08-17T23:47:36.731Z,11.03
2017-08-17T23:50:04.307Z,9.23
2017-08-17T23:52:32.716Z,9.33
2017-08-17T23:55:00.296Z,13.67
2017-08-17T23:57:27.862Z,11.90
2017-08-17T23:59:55.526Z,9.60
